createdAt,value
2023-03-01T00:01:28.455Z,9.47
2023-03-01T00:03:55.902Z,10.10
2023-03-01T00:06:23.468Z,10.70
2023-03-01T00:08:51.017Z,10.37
2023-03-01T00:11:29.697Z,10.03
2023-03-01T00:13:59.264Z,8.33
2023-03-01T00:16:29.968Z,8.97
2023-03-01T00:18:58.091Z,9.20
2023-03-01T00:21:26.301Z,8.90
2023-03-01T00:23:53.692Z,9.13
2023-03-01T00:26:22.478Z,9.20
2023-03-01T00:28:49.556Z,8.10
2023-03-01T00:31:19.548Z,8.70
2023-03-01T00:33:47.018Z,8.70
2023-03-01T00:36:16.261Z,9.63
2023-03-01T00:38:45.579Z,9.50
2023-03-01T00:41:15.328Z,12.03
2023-03-01T00:43:42.639Z,11.13
2023-03-01T00:46:15.558Z,17.17
2023-03-01T00:48:42.913Z,12.60
2023-03-01T00:51:25.570Z,11.47
2023-03-01T00:53:54.147Z,10.67
2023-03-01T00:56:21.733Z,9.87
2023-03-01T00:58:49.188Z,10.03
2023-03-01T01:01:22.671Z,8.80
2023-03-01T01:04:08.734Z,9.30
2023-03-01T01:06:39.029Z,9.30
2023-03-01T01:09:08.021Z,9.47
2023-03-01T01:11:38.770Z,9.93
2023-03-01T01:14:06.153Z,9.60
2023-03-01T01:16:33.645Z,10.77
2023-03-01T01:19:01.543Z,10.27
2023-03-01T01:21:29.155Z,10.00
2023-03-01T01:23:57.391Z,10.10
2023-03-01T01:26:30.434Z,9.90
2023-03-01T01:28:57.843Z,10.10
2023-03-01T01:31:26.262Z,10.33
2023-03-01T01:33:54.141Z,9.47
2023-03-01T01:36:21.599Z,9.00
2023-03-01T01:38:48.529Z,9.30
2023-03-01T01:41:17.241Z,8.77
2023-03-01T01:44:22.960Z,8.90
2023-03-01T01:47:02.042Z,8.93
2023-03-01T01:49:41.682Z,10.50
2023-03-01T01:52:11.583Z,10.10
2023-03-01T01:54:41.080Z,11.93
2023-03-01T01:57:14.400Z,11.07
2023-03-01T01:59:44.270Z,9.67
2023-03-01T02:02:12.824Z,10.50
2023-03-01T02:04:40.298Z,10.47
2023-03-01T02:07:19.317Z,10.17
2023-03-01T02:09:53.311Z,10.77
2023-03-01T02:12:24.263Z,10.47
2023-03-01T02:14:52.509Z,9.50
2023-03-01T02:17:20.422Z,10.27
2023-03-01T02:19:50.161Z,10.27
2023-03-01T02:22:26.496Z,9.33
2023-03-01T02:24:53.547Z,8.73
2023-03-01T02:27:25.707Z,9.67
2023-03-01T02:29:53.110Z,8.73
2023-03-01T02:32:25.957Z,9.17
2023-03-01T02:34:57.934Z,9.43
2023-03-01T02:37:27.404Z,10.20
2023-03-01T02:40:03.876Z,8.70
2023-03-01T02:42:40.576Z,9.13
2023-03-01T02:45:07.776Z,8.83
2023-03-01T02:47:34.715Z,9.47
2023-03-01T02:50:01.762Z,8.20
2023-03-01T02:52:54.332Z,9.63
2023-03-01T02:55:21.275Z,9.10
2023-03-01T02:57:53.212Z,9.40
2023-03-01T03:00:26.276Z,8.50
2023-03-01T03:02:55.264Z,8.97
2023-03-01T03:05:28.838Z,9.40
2023-03-01T03:07:59.366Z,9.67
2023-03-01T03:10:30.090Z,9.07
2023-03-01T03:13:03.275Z,8.80
2023-03-01T03:15:31.535Z,9.27
2023-03-01T03:17:59.724Z,9.77
2023-03-01T03:20:29.046Z,9.47
2023-03-01T03:22:57.803Z,8.60
2023-03-01T03:25:26.148Z,8.77
2023-03-01T03:28:00.391Z,9.10
2023-03-01T03:30:30.373Z,9.03
2023-03-01T03:32:58.933Z,8.90
2023-03-01T03:35:31.163Z,8.93
2023-03-01T03:38:03.005Z,9.97
2023-03-01T03:40:41.511Z,10.00
2023-03-01T03:43:16.992Z,9.77
2023-03-01T03:45:46.477Z,9.67
2023-03-01T03:48:13.487Z,9.93
2023-03-01T03:50:41.402Z,10.17
2023-03-01T03:53:11.387Z,10.73
2023-03-01T03:55:40.224Z,12.70
2023-03-01T03:58:09.475Z,14.40
2023-03-01T04:00:42.842Z,16.97
2023-03-01T04:03:11.108Z,15.30
2023-03-01T04:05:39.137Z,15.80
2023-03-01T04:08:09.199Z,14.03
2023-03-01T04:10:39.162Z,15.13
2023-03-01T04:13:08.010Z,14.60
2023-03-01T04:15:35.637Z,14.43
2023-03-01T04:18:03.873Z,12.67
2023-03-01T04:20:34.656Z,12.67
2023-03-01T04:23:17.267Z,11.93
2023-03-01T04:25:47.739Z,11.73
2023-03-01T04:28:15.150Z,11.03
2023-03-01T04:30:42.430Z,10.53
2023-03-01T04:33:10.698Z,11.53
2023-03-01T04:35:38.671Z,11.53
2023-03-01T04:38:06.439Z,10.77
2023-03-01T04:40:33.757Z,11.50
2023-03-01T04:43:00.744Z,10.03
2023-03-01T04:45:28.742Z,10.90
2023-03-01T04:47:56.042Z,11.83
2023-03-01T04:50:24.550Z,12.97
2023-03-01T04:52:51.735Z,12.63
2023-03-01T04:55:18.954Z,13.40
2023-03-01T04:57:45.858Z,13.10
2023-03-01T05:00:21.177Z,12.43
2023-03-01T05:02:54.429Z,14.30
2023-03-01T05:05:26.788Z,13.30
2023-03-01T05:07:59.660Z,13.00
2023-03-01T05:10:30.131Z,11.03
2023-03-01T05:12:58.417Z,10.70
2023-03-01T05:15:26.586Z,10.30
2023-03-01T05:17:55.777Z,11.30
2023-03-01T05:20:25.913Z,11.03
2023-03-01T05:23:00.390Z,11.13
2023-03-01T05:25:28.006Z,11.77
2023-03-01T05:27:55.039Z,11.63
2023-03-01T05:30:22.653Z,11.97
2023-03-01T05:32:56.609Z,11.63
2023-03-01T05:35:23.896Z,11.30
2023-03-01T05:37:52.205Z,12.63
2023-03-01T05:40:25.259Z,11.37
2023-03-01T05:42:55.577Z,10.20
2023-03-01T05:45:24.164Z,9.83
2023-03-01T05:47:51.686Z,11.03
2023-03-01T05:50:22.577Z,11.43
2023-03-01T05:53:01.829Z,10.37
2023-03-01T05:55:30.125Z,10.97
2023-03-01T05:57:59.677Z,11.20
2023-03-01T06:00:27.136Z,11.33
2023-03-01T06:02:55.409Z,11.17
2023-03-01T06:05:23.240Z,12.67
2023-03-01T06:07:51.281Z,11.73
2023-03-01T06:10:20.960Z,11.87
2023-03-01T06:12:48.245Z,11.30
2023-03-01T06:15:16.985Z,11.67
2023-03-01T06:17:45.683Z,11.33
2023-03-01T06:20:20.229Z,12.40
2023-03-01T06:22:48.073Z,11.50
2023-03-01T06:25:18.234Z,11.70
2023-03-01T06:27:45.613Z,11.77
2023-03-01T06:30:15.035Z,13.20
2023-03-01T06:32:45.729Z,12.40
2023-03-01T06:35:15.403Z,13.30
2023-03-01T06:37:42.675Z,13.67
2023-03-01T06:40:12.566Z,11.30
2023-03-01T06:42:41.918Z,9.57
2023-03-01T06:45:10.469Z,9.00
2023-03-01T06:47:37.440Z,9.40
2023-03-01T06:50:04.932Z,9.30
2023-03-01T06:52:32.057Z,9.07
2023-03-01T06:54:59.077Z,11.03
2023-03-01T06:57:26.038Z,10.23
2023-03-01T06:59:52.996Z,8.73
2023-03-01T07:02:20.163Z,8.83
2023-03-01T07:04:47.363Z,8.37
2023-03-01T07:07:14.293Z,8.53
2023-03-01T07:09:41.186Z,9.23
2023-03-01T07:12:08.894Z,8.90
2023-03-01T07:14:35.822Z,8.50
2023-03-01T07:17:03.181Z,8.53
2023-03-01T07:19:30.245Z,8.50
2023-03-01T07:21:57.266Z,9.00
2023-03-01T07:24:24.515Z,8.53
2023-03-01T07:26:52.504Z,8.77
2023-03-01T07:29:19.493Z,8.43
2023-03-01T07:31:46.481Z,9.50
2023-03-01T07:34:13.630Z,8.60
2023-03-01T07:36:43.411Z,10.10
2023-03-01T07:39:11.598Z,11.20
2023-03-01T07:41:39.159Z,11.83
2023-03-01T07:44:06.136Z,10.37
2023-03-01T07:46:33.564Z,9.33
2023-03-01T07:49:00.686Z,9.03
2023-03-01T07:51:27.645Z,10.10
2023-03-01T07:53:54.734Z,11.87
2023-03-01T07:56:23.030Z,9.30
2023-03-01T07:58:51.170Z,9.07
2023-03-01T08:01:20.622Z,8.70
2023-03-01T08:03:48.053Z,8.77
2023-03-01T08:06:17.213Z,8.87
2023-03-01T08:08:44.417Z,8.13
2023-03-01T08:11:15.976Z,7.50
2023-03-01T08:13:44.029Z,7.83
2023-03-01T08:16:16.019Z,7.20
2023-03-01T08:18:44.084Z,7.30
2023-03-01T08:21:16.610Z,7.47
2023-03-01T08:23:44.539Z,7.93
2023-03-01T08:26:14.883Z,8.90
2023-03-01T08:28:42.703Z,7.67
2023-03-01T08:31:23.293Z,7.67
2023-03-01T08:33:56.263Z,7.53
2023-03-01T08:36:32.460Z,7.87
2023-03-01T08:38:59.975Z,7.77
2023-03-01T08:41:27.277Z,7.40
2023-03-01T08:43:59.444Z,7.47
2023-03-01T08:46:27.387Z,8.27
2023-03-01T08:48:54.318Z,7.53
2023-03-01T08:51:22.546Z,7.27
2023-03-01T08:53:49.925Z,6.93
2023-03-01T08:56:17.955Z,8.00
2023-03-01T08:58:46.712Z,8.20
2023-03-01T09:01:16.488Z,7.80
2023-03-01T09:03:44.383Z,7.13
2023-03-01T09:06:12.220Z,7.70
2023-03-01T09:08:41.365Z,7.60
2023-03-01T09:11:10.480Z,6.43
2023-03-01T09:13:37.778Z,6.93
2023-03-01T09:16:07.904Z,6.43
2023-03-01T09:18:36.007Z,6.30
2023-03-01T09:21:14.601Z,6.20
2023-03-01T09:23:47.612Z,5.77
2023-03-01T09:26:23.122Z,5.85
2023-03-01T09:28:52.959Z,6.43
2023-03-01T09:31:22.715Z,6.60
2023-03-01T09:33:52.632Z,6.15
2023-03-01T09:36:23.246Z,5.65
2023-03-01T09:38:50.702Z,5.68
2023-03-01T09:41:32.707Z,6.10
2023-03-01T09:44:11.911Z,6.00
2023-03-01T09:46:44.300Z,6.40
2023-03-01T09:49:20.636Z,5.63
2023-03-01T09:52:20.334Z,5.57
2023-03-01T09:54:50.561Z,5.90
2023-03-01T09:57:31.307Z,4.57
2023-03-01T10:00:32.002Z,6.10
2023-03-01T10:03:13.226Z,5.90
2023-03-01T10:05:53.997Z,6.18
2023-03-01T10:08:32.352Z,5.00
2023-03-01T10:10:59.974Z,6.60
2023-03-01T10:14:03.999Z,5.35
2023-03-01T10:17:22.615Z,5.90
2023-03-01T10:19:49.635Z,5.20
2023-03-01T10:22:19.439Z,5.45
2023-03-01T10:24:47.634Z,5.03
2023-03-01T10:27:40.830Z,7.05
2023-03-01T10:30:17.724Z,7.38
2023-03-01T10:32:45.632Z,6.68
2023-03-01T10:35:23.697Z,5.82
2023-03-01T10:38:11.882Z,5.85
2023-03-01T10:40:54.961Z,6.47
2023-03-01T10:43:23.436Z,6.37
2023-03-01T10:45:51.169Z,6.88
2023-03-01T10:48:20.358Z,6.63
2023-03-01T10:50:50.407Z,6.88
2023-03-01T10:53:27.397Z,6.72
2023-03-01T10:56:07.695Z,6.07
2023-03-01T10:58:36.568Z,5.88
2023-03-01T11:01:25.546Z,6.07
2023-03-01T11:04:11.494Z,7.45
2023-03-01T11:06:40.241Z,6.45
2023-03-01T11:09:22.277Z,6.28
2023-03-01T11:11:56.274Z,6.63
2023-03-01T11:14:27.517Z,6.88
2023-03-01T11:17:02.522Z,6.47
2023-03-01T11:19:29.553Z,5.90
2023-03-01T11:22:09.669Z,6.55
2023-03-01T11:24:57.264Z,7.15
2023-03-01T11:27:33.874Z,6.53
2023-03-01T11:30:37.234Z,5.80
2023-03-01T11:33:19.759Z,6.90
2023-03-01T11:35:59.076Z,7.00
2023-03-01T11:38:31.720Z,6.68
2023-03-01T11:41:18.265Z,6.25
2023-03-01T11:44:04.309Z,6.20
2023-03-01T11:46:34.531Z,6.82
2023-03-01T11:49:13.930Z,8.13
2023-03-01T11:51:49.620Z,7.45
2023-03-01T11:54:31.535Z,7.30
2023-03-01T11:57:42.744Z,7.20
2023-03-01T12:00:31.852Z,6.80
2023-03-01T12:03:19.135Z,6.90
2023-03-01T12:06:04.636Z,6.63
2023-03-01T12:08:47.168Z,6.78
2023-03-01T12:11:30.377Z,6.22
2023-03-01T12:14:22.155Z,5.90
2023-03-01T12:17:15.666Z,6.75
2023-03-01T12:19:53.657Z,5.80
2023-03-01T12:22:36.736Z,6.32
2023-03-01T12:25:24.784Z,6.20
2023-03-01T12:28:16.387Z,5.80
2023-03-01T12:30:46.137Z,6.33
2023-03-01T12:33:47.331Z,6.07
2023-03-01T12:36:39.634Z,6.37
2023-03-01T12:39:27.650Z,5.73
2023-03-01T12:42:21.239Z,5.73
2023-03-01T12:45:20.485Z,5.70
2023-03-01T12:48:32.263Z,5.57
2023-03-01T12:51:07.409Z,5.40
2023-03-01T12:53:42.839Z,5.87
2023-03-01T12:56:16.130Z,6.07
2023-03-01T12:58:58.662Z,6.30
2023-03-01T13:01:44.173Z,6.30
2023-03-01T13:04:38.356Z,5.73
2023-03-01T13:07:23.443Z,5.87
2023-03-01T13:10:07.436Z,5.43
2023-03-01T13:12:56.154Z,5.73
2023-03-01T13:15:23.093Z,6.13
2023-03-01T13:18:24.275Z,5.40
2023-03-01T13:20:56.520Z,6.70
2023-03-01T13:23:23.450Z,5.80
2023-03-01T13:26:12.517Z,7.57
2023-03-01T13:28:43.964Z,6.23
2023-03-01T13:31:20.723Z,5.90
2023-03-01T13:33:48.458Z,5.77
2023-03-01T13:36:31.960Z,6.40
2023-03-01T13:39:27.568Z,5.67
2023-03-01T13:41:58.463Z,5.80
2023-03-01T13:44:28.156Z,6.77
2023-03-01T13:47:00.186Z,5.87
2023-03-01T13:49:45.417Z,6.73
2023-03-01T13:52:28.048Z,6.13
2023-03-01T13:54:56.666Z,5.30
2023-03-01T13:57:36.821Z,5.10
2023-03-01T14:00:05.809Z,5.40
2023-03-01T14:02:35.259Z,4.97
2023-03-01T14:05:02.688Z,5.17
2023-03-01T14:07:32.799Z,5.10
2023-03-01T14:10:03.256Z,5.20
2023-03-01T14:12:59.626Z,5.23
2023-03-01T14:15:59.072Z,5.27
2023-03-01T14:18:38.057Z,5.53
2023-03-01T14:21:09.841Z,4.87
2023-03-01T14:23:41.457Z,5.37
2023-03-01T14:26:10.350Z,4.90
2023-03-01T14:28:39.891Z,4.83
2023-03-01T14:31:38.461Z,4.00
2023-03-01T14:34:21.714Z,5.90
2023-03-01T14:36:48.835Z,4.83
2023-03-01T14:39:22.135Z,4.67
2023-03-01T14:41:49.368Z,3.90
2023-03-01T14:44:24.082Z,4.83
2023-03-01T14:46:55.144Z,5.00
2023-03-01T14:49:28.190Z,5.30
2023-03-01T14:52:05.548Z,4.63
2023-03-01T14:54:45.155Z,4.47
2023-03-01T14:57:25.290Z,4.90
2023-03-01T15:00:03.910Z,4.30
2023-03-01T15:02:32.450Z,4.30
2023-03-01T15:05:02.663Z,4.33
2023-03-01T15:07:33.420Z,4.60
2023-03-01T15:10:01.336Z,4.67
2023-03-01T15:12:28.282Z,4.20
2023-03-01T15:15:03.803Z,4.70
2023-03-01T15:17:37.093Z,4.27
2023-03-01T15:20:07.898Z,4.20
2023-03-01T15:22:36.081Z,4.70
2023-03-01T15:25:03.230Z,4.60
2023-03-01T15:27:30.133Z,5.07
2023-03-01T15:30:00.409Z,4.77
2023-03-01T15:32:31.905Z,4.70
2023-03-01T15:35:00.362Z,4.67
2023-03-01T15:37:41.667Z,5.13
2023-03-01T15:40:32.349Z,5.07
2023-03-01T15:43:00.664Z,4.80
2023-03-01T15:45:29.736Z,3.60
2023-03-01T15:47:59.003Z,4.17
2023-03-01T15:50:29.401Z,4.10
2023-03-01T15:52:57.692Z,4.33
2023-03-01T15:55:30.985Z,3.43
2023-03-01T15:58:13.743Z,5.47
2023-03-01T16:00:46.326Z,4.10
2023-03-01T16:03:25.105Z,4.10
2023-03-01T16:05:52.590Z,3.77
2023-03-01T16:08:20.169Z,3.90
2023-03-01T16:10:47.518Z,4.17
2023-03-01T16:13:14.556Z,4.13
2023-03-01T16:15:42.011Z,4.63
2023-03-01T16:18:11.252Z,4.10
2023-03-01T16:20:38.813Z,4.60
2023-03-01T16:23:08.083Z,5.10
2023-03-01T16:25:36.154Z,4.77
2023-03-01T16:28:06.056Z,5.13
2023-03-01T16:30:36.206Z,4.17
2023-03-01T16:33:19.252Z,5.50
2023-03-01T16:35:52.058Z,4.63
2023-03-01T16:38:19.233Z,5.10
2023-03-01T16:40:51.485Z,5.73
2023-03-01T16:43:18.541Z,4.97
2023-03-01T16:45:46.539Z,4.50
2023-03-01T16:48:13.860Z,4.30
2023-03-01T16:50:40.991Z,4.80
2023-03-01T16:53:08.211Z,4.80
2023-03-01T16:55:35.198Z,4.50
2023-03-01T16:58:02.560Z,4.70
2023-03-01T17:00:29.620Z,4.80
2023-03-01T17:02:56.795Z,5.63
2023-03-01T17:05:25.050Z,6.43
2023-03-01T17:07:52.453Z,5.00
2023-03-01T17:10:19.468Z,4.53
2023-03-01T17:12:50.499Z,5.47
2023-03-01T17:15:17.503Z,5.13
2023-03-01T17:17:44.664Z,5.83
2023-03-01T17:20:12.078Z,6.33
2023-03-01T17:22:39.044Z,5.33
2023-03-01T17:25:09.392Z,5.43
2023-03-01T17:27:38.269Z,5.90
2023-03-01T17:30:08.667Z,4.87
2023-03-01T17:32:35.774Z,6.87
2023-03-01T17:35:02.788Z,7.13
2023-03-01T17:37:29.649Z,6.37
2023-03-01T17:39:56.767Z,6.30
2023-03-01T17:42:23.693Z,7.13
2023-03-01T17:44:50.657Z,6.43
2023-03-01T17:47:17.603Z,5.97
2023-03-01T17:49:44.506Z,5.10
2023-03-01T17:52:11.471Z,5.30
2023-03-01T17:54:38.418Z,5.63
2023-03-01T17:57:05.401Z,5.60
2023-03-01T17:59:34.058Z,5.83
2023-03-01T18:02:01.787Z,5.80
2023-03-01T18:04:29.519Z,6.23
2023-03-01T18:06:56.474Z,6.10
2023-03-01T18:09:23.555Z,6.93
2023-03-01T18:11:50.628Z,7.60
2023-03-01T18:14:17.666Z,6.00
2023-03-01T18:16:44.871Z,5.83
2023-03-01T18:19:12.651Z,6.17
2023-03-01T18:21:39.900Z,6.13
2023-03-01T18:24:07.138Z,6.43
2023-03-01T18:26:34.474Z,6.40
2023-03-01T18:29:04.114Z,5.83
2023-03-01T18:31:33.481Z,6.57
2023-03-01T18:34:03.545Z,6.00
2023-03-01T18:36:34.196Z,8.50
2023-03-01T18:39:06.433Z,7.47
2023-03-01T18:41:34.202Z,8.97
2023-03-01T18:44:02.548Z,6.53
2023-03-01T18:46:29.520Z,6.70
2023-03-01T18:48:56.598Z,6.70
2023-03-01T18:51:26.438Z,7.07
2023-03-01T18:53:53.749Z,6.07
2023-03-01T18:56:21.057Z,5.43
2023-03-01T18:58:48.002Z,6.67
2023-03-01T19:01:20.752Z,7.40
2023-03-01T19:03:48.603Z,6.47
2023-03-01T19:06:16.643Z,6.13
2023-03-01T19:08:44.496Z,7.77
2023-03-01T19:11:13.531Z,7.10
2023-03-01T19:13:41.238Z,6.87
2023-03-01T19:16:18.053Z,6.57
2023-03-01T19:18:51.446Z,6.87
2023-03-01T19:21:20.712Z,6.13
2023-03-01T19:23:49.046Z,6.60
2023-03-01T19:26:18.542Z,5.90
2023-03-01T19:28:46.404Z,6.90
2023-03-01T19:31:16.527Z,6.77
2023-03-01T19:33:43.877Z,5.23
2023-03-01T19:36:12.698Z,6.70
2023-03-01T19:38:41.717Z,6.43
2023-03-01T19:41:17.219Z,7.80
2023-03-01T19:43:46.389Z,7.53
2023-03-01T19:46:15.006Z,11.70
2023-03-01T19:48:44.421Z,12.20
2023-03-01T19:51:12.703Z,9.13
2023-03-01T19:53:41.042Z,12.30
2023-03-01T19:56:09.044Z,11.13
2023-03-01T19:58:36.693Z,7.57
2023-03-01T20:01:03.796Z,8.70
2023-03-01T20:03:35.685Z,6.93
2023-03-01T20:06:10.953Z,7.13
2023-03-01T20:08:38.040Z,7.23
2023-03-01T20:11:08.502Z,6.27
2023-03-01T20:13:36.362Z,17.10
2023-03-01T20:16:04.731Z,8.37
2023-03-01T20:18:32.494Z,6.07
2023-03-01T20:21:00.575Z,10.33
2023-03-01T20:23:28.166Z,6.27
2023-03-01T20:26:07.366Z,6.30
2023-03-01T20:28:35.723Z,8.57
2023-03-01T20:31:08.483Z,12.60
2023-03-01T20:33:35.602Z,7.93
2023-03-01T20:36:02.854Z,8.50
2023-03-01T20:38:30.041Z,6.80
2023-03-01T20:41:01.961Z,7.00
2023-03-01T20:43:29.381Z,6.70
2023-03-01T20:45:56.699Z,6.70
2023-03-01T20:48:24.056Z,6.63
2023-03-01T20:50:51.087Z,7.47
2023-03-01T20:53:18.018Z,6.73
2023-03-01T20:55:45.178Z,6.37
2023-03-01T20:58:12.163Z,5.80
2023-03-01T21:00:39.245Z,5.97
2023-03-01T21:03:06.191Z,5.97
2023-03-01T21:05:33.204Z,5.90
2023-03-01T21:08:02.798Z,7.00
2023-03-01T21:10:30.817Z,5.97
2023-03-01T21:12:57.843Z,7.97
2023-03-01T21:15:29.276Z,9.53
2023-03-01T21:17:56.822Z,7.47
2023-03-01T21:20:23.966Z,6.77
2023-03-01T21:22:50.885Z,5.97
2023-03-01T21:25:17.872Z,6.37
2023-03-01T21:27:44.839Z,7.30
2023-03-01T21:30:12.386Z,6.73
2023-03-01T21:32:39.465Z,11.20
2023-03-01T21:35:06.686Z,10.53
2023-03-01T21:37:33.620Z,10.20
2023-03-01T21:40:00.559Z,6.57
2023-03-01T21:42:27.589Z,7.10
2023-03-01T21:44:54.679Z,8.33
2023-03-01T21:47:21.665Z,8.17
2023-03-01T21:49:48.613Z,6.73
2023-03-01T21:52:17.037Z,7.20
2023-03-01T21:54:44.645Z,7.00
2023-03-01T21:57:12.302Z,6.80
2023-03-01T21:59:39.313Z,7.07
2023-03-01T22:02:06.301Z,7.90
2023-03-01T22:04:33.322Z,5.80
2023-03-01T22:07:00.507Z,7.80
2023-03-01T22:09:27.718Z,9.50
2023-03-01T22:12:02.381Z,8.57
2023-03-01T22:14:31.192Z,10.03
2023-03-01T22:16:58.593Z,9.93
2023-03-01T22:19:26.954Z,11.67
2023-03-01T22:21:54.031Z,9.27
2023-03-01T22:24:24.282Z,7.13
2023-03-01T22:26:53.153Z,10.50
2023-03-01T22:29:26.940Z,9.47
2023-03-01T22:31:55.282Z,9.63
2023-03-01T22:34:22.409Z,7.43
2023-03-01T22:36:49.635Z,7.70
2023-03-01T22:39:18.856Z,7.97
2023-03-01T22:41:47.065Z,8.17
2023-03-01T22:44:17.281Z,8.10
2023-03-01T22:46:44.569Z,5.97
2023-03-01T22:49:11.580Z,6.17
2023-03-01T22:51:42.400Z,6.70
2023-03-01T22:54:11.154Z,6.80
2023-03-01T22:56:40.045Z,6.30
2023-03-01T22:59:09.843Z,6.43
2023-03-01T23:01:38.287Z,5.67
2023-03-01T23:04:05.684Z,5.80
2023-03-01T23:06:33.108Z,6.40
2023-03-01T23:09:03.028Z,6.70
2023-03-01T23:11:30.314Z,6.80
2023-03-01T23:13:59.082Z,7.50
2023-03-01T23:16:26.724Z,6.20
2023-03-01T23:18:55.875Z,6.50
2023-03-01T23:21:23.124Z,5.90
2023-03-01T23:23:51.059Z,7.43
2023-03-01T23:26:19.084Z,8.40
2023-03-01T23:28:47.364Z,8.73
2023-03-01T23:31:15.549Z,8.57
2023-03-01T23:33:45.160Z,8.13
2023-03-01T23:36:18.266Z,7.47
2023-03-01T23:38:50.944Z,5.93
2023-03-01T23:41:21.758Z,5.83
2023-03-01T23:43:51.716Z,5.73
2023-03-01T23:46:21.784Z,6.47
2023-03-01T23:48:48.923Z,6.53
2023-03-01T23:51:17.828Z,5.90
2023-03-01T23:53:57.369Z,6.80
2023-03-01T23:56:36.090Z,5.53
2023-03-01T23:59:15.466Z,5.30
